SAZR/RSA METAR and TAF weather

Enter ICAO airport designator
Station Type Date Time Source
SAZR METAR 2018/12/14 23:00 UTC NOAA

SAZR 142300Z 16008KT 5000 TSRA BKN035 FEW050CB OVC100 16/15 Q1010


Station Type Date Time Source
SAZR Decoded METAR 2018/12/14 23:00 UTC NOAA

Santa Rosa Aerodrome, Argentina (SAZR) 36-34S 064-16W 191M
Dec 14, 2018 - 06:00 PM EST / 2018.12.14 2300 UTC
Wind: from the SSE (160 degrees) at 9 MPH (8 KT):0
Visibility: 3 mile(s):0
Sky conditions: overcast
Weather: rain with thunder; Cumulonimbus clouds observed
Temperature: 60 F (16 C)
Dew Point: 59 F (15 C)
Relative Humidity: 93%
Pressure (altimeter): 29.83 in. Hg (1010 hPa)
ob: SAZR 142300Z 16008KT 5000 TSRA BKN035 FEW050CB OVC100 16/15 Q1010
cycle: 23

Station Type Date Time Source
SAZR TAF 2018/11/21 00:48 UTC NOAA

TAF SAZR 212300Z 2200/2224 36005KT 9999 FEW060CB TX31/2200Z TN18/2211Z
BECMG 2201/2203 18015G25KT 6000 TSRA SCT020 FEW045CB OVC045
BECMG 2205/2207 9999 SCT030
BECMG 2218/2220 15010KT CAVOK


Example: see airport list